Time;durP1;ratioP1;P1;durP2;ratioP2;P2;SDS_P1;SDS_P2;PMS_P1;PMS_P2;Temp;Humidity;BMP_temperature;BMP_pressure;BME280_temperature;BME280_humidity;BME280_pressure;Samples;Min_cycle;Max_cycle;Signal;HPM_P1;HPM_P2
2021/09/10 00:01:39;;;;;;;21.20;18.93;;;;;;;;;;4984658;28;20449;-71
2021/09/10 00:04:04;;;;;;;24.20;19.37;;;;;;;;;;4969897;28;20421;-71
2021/09/10 00:06:29;;;;;;;24.30;21.88;;;;;;;;;;4985656;28;20516;-71
2021/09/10 00:08:56;;;;;;;22.45;20.25;;;;;;;;;;4991476;28;20183;-71
2021/09/10 00:11:21;;;;;;;24.00;20.23;;;;;;;;;;4974655;28;20904;-71
2021/09/10 00:13:46;;;;;;;27.08;22.25;;;;;;;;;;4968139;28;20184;-71
2021/09/10 00:16:11;;;;;;;26.00;21.73;;;;;;;;;;4983622;28;20180;-71
2021/09/10 00:18:36;;;;;;;25.20;22.60;;;;;;;;;;4978881;28;20183;-71
2021/09/10 00:21:03;;;;;;;25.33;22.70;;;;;;;;;;4981401;28;20243;-71
2021/09/10 00:23:28;;;;;;;26.85;24.00;;;;;;;;;;4989123;28;20298;-71
2021/09/10 00:25:53;;;;;;;24.67;22.10;;;;;;;;;;4988910;28;20597;-71
2021/09/10 00:28:18;;;;;;;24.63;20.90;;;;;;;;;;4989491;28;20430;-71
2021/09/10 00:30:43;;;;;;;21.27;18.87;;;;;;;;;;4988970;28;21068;-71
2021/09/10 00:33:08;;;;;;;27.80;23.40;;;;;;;;;;4990115;28;20472;-71
2021/09/10 00:35:34;;;;;;;23.65;21.15;;;;;;;;;;4987579;28;20981;-71
2021/09/10 00:37:59;;;;;;;23.93;21.40;;;;;;;;;;4983591;28;20228;-71
2021/09/10 00:40:24;;;;;;;29.30;25.00;;;;;;;;;;4985401;28;20425;-71
2021/09/10 00:42:49;;;;;;;22.53;20.20;;;;;;;;;;4991312;28;20621;-72
2021/09/10 00:45:14;;;;;;;25.13;22.23;;;;;;;;;;4989394;28;20490;-71
2021/09/10 00:47:40;;;;;;;28.92;25.25;;;;;;;;;;4986680;28;20779;-72
2021/09/10 00:50:05;;;;;;;30.13;25.65;;;;;;;;;;4968872;28;20596;-71
2021/09/10 00:52:31;;;;;;;30.30;25.60;;;;;;;;;;4987799;28;20311;-71
2021/09/10 00:54:56;;;;;;;28.52;24.30;;;;;;;;;;4988477;28;20183;-71
2021/09/10 00:57:21;;;;;;;24.77;22.00;;;;;;;;;;4971171;28;20180;-71
2021/09/10 00:59:46;;;;;;;28.20;25.13;;;;;;;;;;4985876;28;20187;-71
2021/09/10 01:02:12;;;;;;;30.87;26.27;;;;;;;;;;4975067;28;20572;-71
2021/09/10 01:04:38;;;;;;;31.13;24.48;;;;;;;;;;4970721;28;20512;-71
2021/09/10 01:07:04;;;;;;;27.08;23.88;;;;;;;;;;4972227;28;20638;-71
2021/09/10 01:09:29;;;;;;;29.25;25.55;;;;;;;;;;4974541;28;20202;-71
2021/09/10 01:11:55;;;;;;;28.63;25.42;;;;;;;;;;4980559;28;20235;-71
2021/09/10 01:14:21;;;;;;;33.30;25.83;;;;;;;;;;4972902;28;20883;-72
2021/09/10 01:16:46;;;;;;;30.83;25.20;;;;;;;;;;4979641;28;20211;-72
2021/09/10 01:19:27;;;;;;;29.15;25.88;;;;;;;;;;4974461;28;20192;-71
2021/09/10 01:21:57;;;;;;;26.75;23.13;;;;;;;;;;4977615;28;20230;-71
2021/09/10 01:24:32;;;;;;;29.58;25.58;;;;;;;;;;4978751;28;20191;-71
2021/09/10 01:26:57;;;;;;;30.52;25.55;;;;;;;;;;4974543;28;20182;-71
2021/09/10 01:29:22;;;;;;;26.30;23.48;;;;;;;;;;4955596;28;20184;-71
2021/09/10 01:31:48;;;;;;;28.53;24.67;;;;;;;;;;4975855;28;20294;-72
2021/09/10 01:34:13;;;;;;;28.60;24.33;;;;;;;;;;4978079;28;20425;-71
2021/09/10 01:36:38;;;;;;;29.52;23.67;;;;;;;;;;4975342;28;20207;-71
2021/09/10 01:39:03;;;;;;;29.43;26.03;;;;;;;;;;4975234;28;20194;-71
2021/09/10 01:41:28;;;;;;;29.77;25.97;;;;;;;;;;4972682;28;21408;-72
2021/09/10 01:43:54;;;;;;;28.20;24.93;;;;;;;;;;4975660;28;20473;-70
2021/09/10 01:46:19;;;;;;;28.23;23.80;;;;;;;;;;4981793;28;20800;-70
2021/09/10 01:48:44;;;;;;;27.23;23.27;;;;;;;;;;4977690;28;20429;-70
2021/09/10 01:51:09;;;;;;;28.10;24.73;;;;;;;;;;4974879;28;20311;-70
2021/09/10 01:53:34;;;;;;;27.77;23.83;;;;;;;;;;4979612;28;20306;-70
2021/09/10 01:56:00;;;;;;;29.85;24.15;;;;;;;;;;4972438;28;20436;-70
2021/09/10 01:58:25;;;;;;;26.83;23.65;;;;;;;;;;4975333;28;20192;-70
2021/09/10 02:00:50;;;;;;;28.37;24.60;;;;;;;;;;4978065;28;20623;-70
2021/09/10 02:03:16;;;;;;;30.30;24.30;;;;;;;;;;4977585;28;20503;-70
2021/09/10 02:05:41;;;;;;;33.53;26.23;;;;;;;;;;4973830;28;20922;-70
2021/09/10 02:08:06;;;;;;;31.27;26.20;;;;;;;;;;4977983;28;20943;-70
2021/09/10 02:10:31;;;;;;;28.70;24.10;;;;;;;;;;4974898;28;20180;-70
2021/09/10 02:12:56;;;;;;;27.80;23.85;;;;;;;;;;4976493;28;20441;-70
2021/09/10 02:15:22;;;;;;;28.70;23.23;;;;;;;;;;4973016;28;20206;-70
2021/09/10 02:17:47;;;;;;;31.83;25.50;;;;;;;;;;4976607;28;20177;-71
2021/09/10 02:20:12;;;;;;;32.40;25.50;;;;;;;;;;4975211;28;20613;-70
2021/09/10 02:22:37;;;;;;;34.83;27.00;;;;;;;;;;4973190;28;20218;-70
2021/09/10 02:25:03;;;;;;;29.40;23.88;;;;;;;;;;4976422;28;20176;-70
2021/09/10 02:27:28;;;;;;;28.45;24.35;;;;;;;;;;4974755;28;20192;-70
2021/09/10 02:29:53;;;;;;;31.80;26.65;;;;;;;;;;4976040;28;20254;-70
2021/09/10 02:32:18;;;;;;;36.38;26.08;;;;;;;;;;4959704;28;20620;-70
2021/09/10 02:34:43;;;;;;;30.77;24.33;;;;;;;;;;4972521;28;20294;-70
2021/09/10 02:37:09;;;;;;;29.25;23.10;;;;;;;;;;4978509;28;20441;-70
2021/09/10 02:39:34;;;;;;;35.28;25.50;;;;;;;;;;4980616;28;20215;-70
2021/09/10 02:41:59;;;;;;;33.85;24.52;;;;;;;;;;4972909;28;20219;-70
2021/09/10 02:44:24;;;;;;;34.50;26.67;;;;;;;;;;4976757;28;20214;-70
2021/09/10 02:46:51;;;;;;;32.97;26.38;;;;;;;;;;4975697;28;20796;-70
2021/09/10 02:49:16;;;;;;;28.10;23.67;;;;;;;;;;4976473;28;20223;-70
2021/09/10 02:51:42;;;;;;;34.35;25.33;;;;;;;;;;4971485;28;20216;-70
2021/09/10 02:54:07;;;;;;;28.50;23.75;;;;;;;;;;4955869;28;20183;-70
2021/09/10 02:56:32;;;;;;;31.33;26.30;;;;;;;;;;4970296;28;20187;-70
2021/09/10 02:58:57;;;;;;;28.10;23.77;;;;;;;;;;4970530;28;20437;-70
2021/09/10 03:01:22;;;;;;;31.00;24.25;;;;;;;;;;4974000;28;20295;-70
2021/09/10 03:03:47;;;;;;;31.55;24.92;;;;;;;;;;4956806;28;21461;-70
2021/09/10 03:06:13;;;;;;;29.57;23.17;;;;;;;;;;4973127;28;20175;-70
2021/09/10 03:08:38;;;;;;;32.20;23.92;;;;;;;;;;4973344;28;20447;-70
2021/09/10 03:11:03;;;;;;;32.07;25.00;;;;;;;;;;4975711;28;20710;-70
2021/09/10 03:13:28;;;;;;;29.52;24.17;;;;;;;;;;4973234;28;20430;-70
2021/09/10 03:15:53;;;;;;;27.42;22.67;;;;;;;;;;4979723;28;20195;-70
2021/09/10 03:18:19;;;;;;;28.40;22.17;;;;;;;;;;4971068;28;20184;-70
2021/09/10 03:20:44;;;;;;;27.90;24.47;;;;;;;;;;4977100;28;20239;-70
2021/09/10 03:23:09;;;;;;;27.45;23.35;;;;;;;;;;4972195;28;20480;-70
2021/09/10 03:25:34;;;;;;;30.15;23.08;;;;;;;;;;4975243;28;20184;-70
2021/09/10 03:27:59;;;;;;;25.23;22.07;;;;;;;;;;4970755;28;20245;-70
2021/09/10 03:30:25;;;;;;;28.20;22.15;;;;;;;;;;4956508;28;20442;-70
2021/09/10 03:32:50;;;;;;;28.80;21.92;;;;;;;;;;4973135;28;20186;-70
2021/09/10 03:35:15;;;;;;;29.48;21.13;;;;;;;;;;4974314;28;20187;-70
2021/09/10 03:37:40;;;;;;;23.30;19.17;;;;;;;;;;4971450;28;20203;-70
2021/09/10 03:40:06;;;;;;;26.75;19.92;;;;;;;;;;4978738;28;21135;-70
2021/09/10 03:42:31;;;;;;;24.48;20.67;;;;;;;;;;4975305;28;20210;-70
2021/09/10 03:44:57;;;;;;;25.10;19.60;;;;;;;;;;4982793;28;20180;-70
2021/09/10 03:47:22;;;;;;;22.70;20.27;;;;;;;;;;4982873;28;20237;-70
2021/09/10 03:49:47;;;;;;;21.88;19.45;;;;;;;;;;4976949;28;20434;-70
2021/09/10 03:52:12;;;;;;;22.97;19.43;;;;;;;;;;4976186;28;20202;-70
2021/09/10 03:54:38;;;;;;;25.20;20.65;;;;;;;;;;4981848;28;20436;-70
2021/09/10 03:57:03;;;;;;;24.23;19.80;;;;;;;;;;4973419;28;20233;-70
2021/09/10 03:59:28;;;;;;;24.00;19.48;;;;;;;;;;4968858;28;21677;-70
2021/09/10 04:01:53;;;;;;;22.40;17.88;;;;;;;;;;4955317;28;20850;-70
2021/09/10 04:04:19;;;;;;;23.70;19.52;;;;;;;;;;4951808;28;20266;-70
2021/09/10 04:06:44;;;;;;;21.85;19.50;;;;;;;;;;4974335;28;20180;-70
2021/09/10 04:09:09;;;;;;;26.05;20.02;;;;;;;;;;4970941;28;21805;-72
2021/09/10 04:11:36;;;;;;;21.05;18.92;;;;;;;;;;4974773;28;20260;-72
2021/09/10 04:14:01;;;;;;;19.73;17.35;;;;;;;;;;4971953;28;20293;-72
2021/09/10 04:16:27;;;;;;;21.42;19.02;;;;;;;;;;4969847;28;20613;-72
2021/09/10 04:18:52;;;;;;;21.38;18.50;;;;;;;;;;4990744;23;20234;-72
2021/09/10 04:21:18;;;;;;;23.05;18.40;;;;;;;;;;5018282;28;20189;-72
2021/09/10 04:23:43;;;;;;;24.33;19.23;;;;;;;;;;5007649;28;20227;-72
2021/09/10 04:26:08;;;;;;;21.63;18.57;;;;;;;;;;5011168;28;20439;-72
2021/09/10 04:28:33;;;;;;;21.77;17.75;;;;;;;;;;5013473;28;20424;-71
2021/09/10 04:30:58;;;;;;;22.27;18.40;;;;;;;;;;5013157;28;20513;-71
2021/09/10 04:33:23;;;;;;;19.53;16.87;;;;;;;;;;5009053;28;20456;-71
2021/09/10 04:35:49;;;;;;;22.05;17.58;;;;;;;;;;5007292;28;20431;-71
2021/09/10 04:38:14;;;;;;;19.17;16.83;;;;;;;;;;5008719;28;20823;-71
2021/09/10 04:40:39;;;;;;;20.27;17.60;;;;;;;;;;5011237;28;20239;-71
2021/09/10 04:43:05;;;;;;;23.65;18.05;;;;;;;;;;5009720;28;20250;-71
2021/09/10 04:45:30;;;;;;;21.33;18.55;;;;;;;;;;5016840;28;20239;-71
2021/09/10 04:47:55;;;;;;;22.23;16.50;;;;;;;;;;5015341;28;20190;-71
2021/09/10 04:50:20;;;;;;;21.60;17.58;;;;;;;;;;5013243;28;20546;-71
2021/09/10 04:52:45;;;;;;;19.13;16.88;;;;;;;;;;5011469;28;20328;-71
2021/09/10 04:55:11;;;;;;;19.07;15.30;;;;;;;;;;5018188;28;20227;-71
2021/09/10 04:57:37;;;;;;;19.48;16.48;;;;;;;;;;5011142;28;20427;-71
2021/09/10 05:00:02;;;;;;;18.63;16.08;;;;;;;;;;5015643;28;20209;-71
2021/09/10 05:02:27;;;;;;;24.08;16.90;;;;;;;;;;5024377;28;20204;-71
2021/09/10 05:04:52;;;;;;;17.67;15.77;;;;;;;;;;5030351;28;20526;-71
2021/09/10 05:07:18;;;;;;;18.90;16.43;;;;;;;;;;5031257;28;20253;-71
2021/09/10 05:09:43;;;;;;;18.50;16.50;;;;;;;;;;5028819;28;20474;-72
2021/09/10 05:12:08;;;;;;;19.98;15.68;;;;;;;;;;5011226;28;20461;-71
2021/09/10 05:14:33;;;;;;;22.33;16.13;;;;;;;;;;5013197;28;20269;-71
2021/09/10 05:16:58;;;;;;;18.98;15.88;;;;;;;;;;5011761;28;20557;-71
2021/09/10 05:19:24;;;;;;;16.90;15.07;;;;;;;;;;4997915;28;20210;-72
2021/09/10 05:21:49;;;;;;;19.50;15.23;;;;;;;;;;5010881;28;20651;-71
2021/09/10 05:24:14;;;;;;;17.70;15.15;;;;;;;;;;4993235;28;20214;-71
2021/09/10 05:26:40;;;;;;;21.20;17.27;;;;;;;;;;5015546;28;20241;-71
2021/09/10 05:29:05;;;;;;;16.88;15.07;;;;;;;;;;5010956;28;20447;-71
2021/09/10 05:31:30;;;;;;;22.10;18.30;;;;;;;;;;5018662;28;20196;-71
2021/09/10 05:33:55;;;;;;;22.83;17.77;;;;;;;;;;5011202;28;20439;-71
2021/09/10 05:36:20;;;;;;;19.38;15.50;;;;;;;;;;5012886;28;20205;-71
2021/09/10 05:38:46;;;;;;;17.63;15.80;;;;;;;;;;5010514;28;20268;-72
2021/09/10 05:41:11;;;;;;;19.88;16.83;;;;;;;;;;4993862;28;20410;-71
2021/09/10 05:43:36;;;;;;;18.80;15.97;;;;;;;;;;5011835;28;20238;-71
2021/09/10 05:46:01;;;;;;;21.38;16.83;;;;;;;;;;5014024;28;20431;-72
2021/09/10 05:48:26;;;;;;;19.97;15.60;;;;;;;;;;4996226;28;20265;-71
2021/09/10 05:50:52;;;;;;;23.07;17.00;;;;;;;;;;5014798;28;20450;-73
2021/09/10 05:53:17;;;;;;;19.80;15.75;;;;;;;;;;5014142;28;20470;-72
2021/09/10 05:55:43;;;;;;;19.00;16.00;;;;;;;;;;5009941;28;20186;-72
2021/09/10 05:58:08;;;;;;;17.70;15.48;;;;;;;;;;5011370;28;20183;-72
2021/09/10 06:00:34;;;;;;;18.60;16.25;;;;;;;;;;5014761;28;20214;-72
2021/09/10 06:02:59;;;;;;;17.98;14.93;;;;;;;;;;5010825;28;20218;-72
2021/09/10 06:05:24;;;;;;;16.57;14.80;;;;;;;;;;5017358;28;20645;-72
2021/09/10 06:07:49;;;;;;;16.43;13.87;;;;;;;;;;5010368;28;20526;-72
2021/09/10 06:10:17;;;;;;;15.60;13.93;;;;;;;;;;5009316;28;20443;-72
2021/09/10 06:12:43;;;;;;;16.55;14.77;;;;;;;;;;5018334;28;20936;-72
2021/09/10 06:15:08;;;;;;;16.07;13.97;;;;;;;;;;5028092;28;20296;-72
2021/09/10 06:17:33;;;;;;;17.42;15.63;;;;;;;;;;5012580;28;20431;-72
2021/09/10 06:19:59;;;;;;;14.63;13.07;;;;;;;;;;5015810;28;20575;-72
2021/09/10 06:22:27;;;;;;;15.75;13.90;;;;;;;;;;5009548;28;20203;-72
2021/09/10 06:24:52;;;;;;;14.77;12.90;;;;;;;;;;5013537;28;20174;-72
2021/09/10 06:27:17;;;;;;;14.37;12.87;;;;;;;;;;5010236;28;20232;-72
2021/09/10 06:29:42;;;;;;;15.37;13.50;;;;;;;;;;5010116;28;21005;-72
2021/09/10 06:32:08;;;;;;;15.70;12.73;;;;;;;;;;5014513;28;20428;-72
2021/09/10 06:34:33;;;;;;;16.40;12.70;;;;;;;;;;4997123;28;21043;-72
2021/09/10 06:36:58;;;;;;;16.57;12.97;;;;;;;;;;5011086;28;20666;-72
2021/09/10 06:39:23;;;;;;;19.63;13.53;;;;;;;;;;5009598;28;20463;-72
2021/09/10 06:41:48;;;;;;;15.17;12.80;;;;;;;;;;5014616;28;20940;-72
2021/09/10 06:44:13;;;;;;;14.30;12.87;;;;;;;;;;5015475;28;20439;-72
2021/09/10 06:46:39;;;;;;;15.97;12.43;;;;;;;;;;4997038;28;20456;-72
2021/09/10 06:49:04;;;;;;;16.65;12.30;;;;;;;;;;5009806;28;20440;-72
2021/09/10 06:51:29;;;;;;;16.55;12.52;;;;;;;;;;5015539;28;20552;-72
2021/09/10 06:53:55;;;;;;;14.68;13.10;;;;;;;;;;4996913;28;20193;-71
2021/09/10 06:56:20;;;;;;;13.13;11.83;;;;;;;;;;5017559;28;20194;-72
2021/09/10 06:58:45;;;;;;;14.60;12.07;;;;;;;;;;5008542;28;21028;-72
2021/09/10 07:01:11;;;;;;;14.25;10.75;;;;;;;;;;5019024;28;20202;-72
2021/09/10 07:03:36;;;;;;;12.00;10.80;;;;;;;;;;5013220;28;20297;-72
2021/09/10 07:06:01;;;;;;;13.73;12.33;;;;;;;;;;5011057;28;20246;-72
2021/09/10 07:08:28;;;;;;;16.30;11.68;;;;;;;;;;5015684;28;20450;-72
2021/09/10 07:10:53;;;;;;;14.40;11.93;;;;;;;;;;5017270;28;20174;-72
2021/09/10 07:13:19;;;;;;;12.93;11.63;;;;;;;;;;5012991;28;20205;-72
2021/09/10 07:15:45;;;;;;;13.45;9.75;;;;;;;;;;5016341;28;20531;-72
2021/09/10 07:18:10;;;;;;;13.20;11.07;;;;;;;;;;5010945;28;20193;-72
2021/09/10 07:20:35;;;;;;;13.13;11.53;;;;;;;;;;5015616;28;20252;-72
2021/09/10 07:23:00;;;;;;;13.13;10.57;;;;;;;;;;5007688;28;20475;-72
2021/09/10 07:25:25;;;;;;;12.32;10.52;;;;;;;;;;4998513;28;20194;-72
2021/09/10 07:27:51;;;;;;;12.02;10.57;;;;;;;;;;5010019;28;20656;-72
2021/09/10 07:30:16;;;;;;;12.75;9.85;;;;;;;;;;5009948;28;20621;-71
2021/09/10 07:32:41;;;;;;;10.55;8.93;;;;;;;;;;5007660;28;20228;-71
2021/09/10 07:35:07;;;;;;;14.77;11.13;;;;;;;;;;5008905;28;20190;-72
2021/09/10 07:37:33;;;;;;;15.05;11.13;;;;;;;;;;5008332;28;20427;-72
2021/09/10 07:39:58;;;;;;;13.95;10.30;;;;;;;;;;5015611;28;20675;-71
2021/09/10 07:42:23;;;;;;;12.70;9.48;;;;;;;;;;5020409;28;20194;-71
2021/09/10 07:44:49;;;;;;;10.57;9.40;;;;;;;;;;5021470;28;20221;-71
2021/09/10 07:47:15;;;;;;;10.43;9.25;;;;;;;;;;5011282;28;20953;-72
2021/09/10 07:49:41;;;;;;;10.50;9.50;;;;;;;;;;5015671;28;20208;-72
2021/09/10 07:52:06;;;;;;;11.75;9.45;;;;;;;;;;5015956;28;20194;-72
2021/09/10 07:54:31;;;;;;;13.77;9.85;;;;;;;;;;5016749;28;20178;-71
2021/09/10 07:56:57;;;;;;;10.85;9.55;;;;;;;;;;5017281;28;20186;-72
2021/09/10 07:59:22;;;;;;;9.57;8.63;;;;;;;;;;5017918;28;20709;-72
2021/09/10 08:01:47;;;;;;;10.27;8.15;;;;;;;;;;5000894;28;20572;-72
2021/09/10 08:04:12;;;;;;;9.60;8.47;;;;;;;;;;5010673;28;20824;-72
2021/09/10 08:06:37;;;;;;;10.10;8.00;;;;;;;;;;5017342;28;20447;-72
2021/09/10 08:09:03;;;;;;;11.00;8.75;;;;;;;;;;5012235;28;20237;-72
2021/09/10 08:11:30;;;;;;;9.02;8.10;;;;;;;;;;5017789;28;20179;-72
2021/09/10 08:13:55;;;;;;;10.77;8.27;;;;;;;;;;5014325;28;20186;-72
2021/09/10 08:16:20;;;;;;;11.13;8.32;;;;;;;;;;5012811;28;20186;-72
2021/09/10 08:18:45;;;;;;;12.90;8.40;;;;;;;;;;5009431;28;20224;-72
2021/09/10 08:21:11;;;;;;;9.37;8.40;;;;;;;;;;5022207;28;20462;-71
2021/09/10 08:23:36;;;;;;;10.43;8.13;;;;;;;;;;5017535;28;20467;-70
2021/09/10 08:26:01;;;;;;;10.03;7.63;;;;;;;;;;5016275;28;20429;-70
2021/09/10 08:28:26;;;;;;;8.82;7.75;;;;;;;;;;5014551;28;20923;-71
2021/09/10 08:30:51;;;;;;;10.10;7.93;;;;;;;;;;5020173;28;20660;-71
2021/09/10 08:33:18;;;;;;;9.27;7.43;;;;;;;;;;5015380;28;20734;-71
2021/09/10 08:35:43;;;;;;;8.02;7.22;;;;;;;;;;5011592;28;20891;-71
2021/09/10 08:38:08;;;;;;;13.20;7.73;;;;;;;;;;5011860;28;20217;-71
2021/09/10 08:40:34;;;;;;;8.82;7.43;;;;;;;;;;5009177;28;20456;-71
2021/09/10 08:42:59;;;;;;;9.82;7.07;;;;;;;;;;5014169;28;20214;-71
2021/09/10 08:45:25;;;;;;;10.50;7.88;;;;;;;;;;5014997;28;20189;-71
2021/09/10 08:47:50;;;;;;;9.95;7.18;;;;;;;;;;5010384;28;20179;-71
2021/09/10 08:50:15;;;;;;;7.83;7.03;;;;;;;;;;5013120;28;20201;-71
2021/09/10 08:52:41;;;;;;;8.23;7.43;;;;;;;;;;5009542;28;20431;-71
2021/09/10 08:55:07;;;;;;;11.52;7.38;;;;;;;;;;5011450;28;20416;-72
2021/09/10 08:57:35;;;;;;;7.38;6.35;;;;;;;;;;5013126;28;20190;-71
2021/09/10 09:00:09;;;;;;;8.15;7.05;;;;;;;;;;5012090;28;20203;-71
2021/09/10 09:02:35;;;;;;;8.65;7.38;;;;;;;;;;5014334;28;20229;-71
2021/09/10 09:05:00;;;;;;;10.45;6.88;;;;;;;;;;5015945;28;20190;-71
2021/09/10 09:07:27;;;;;;;10.75;7.68;;;;;;;;;;5013874;28;20206;-71
2021/09/10 09:09:55;;;;;;;9.27;7.45;;;;;;;;;;5016491;28;20187;-71
2021/09/10 09:12:20;;;;;;;9.02;7.68;;;;;;;;;;5015483;28;20257;-72
2021/09/10 09:14:54;;;;;;;9.95;7.25;;;;;;;;;;5008589;28;20299;-72
2021/09/10 09:17:24;;;;;;;11.98;8.25;;;;;;;;;;5015473;28;20181;-72
2021/09/10 09:20:07;;;;;;;10.88;7.57;;;;;;;;;;5014832;28;20575;-71
2021/09/10 09:22:49;;;;;;;10.70;7.35;;;;;;;;;;5016829;28;20392;-71
2021/09/10 09:25:15;;;;;;;11.65;7.60;;;;;;;;;;5016315;28;20220;-71
2021/09/10 09:27:41;;;;;;;9.38;7.10;;;;;;;;;;5015174;28;20186;-71
2021/09/10 09:30:06;;;;;;;12.63;7.73;;;;;;;;;;5013287;28;20198;-70
2021/09/10 09:32:44;;;;;;;11.90;7.13;;;;;;;;;;5014950;28;20804;-72
2021/09/10 09:35:10;;;;;;;17.20;8.60;;;;;;;;;;5019875;28;20174;-71
2021/09/10 09:37:35;;;;;;;8.10;7.13;;;;;;;;;;5021068;28;20186;-71
2021/09/10 09:40:00;;;;;;;17.98;8.77;;;;;;;;;;5001844;28;21096;-71
2021/09/10 09:42:29;;;;;;;10.43;7.10;;;;;;;;;;5017043;28;20225;-71
2021/09/10 09:45:14;;;;;;;9.10;7.68;;;;;;;;;;5020859;28;20473;-71
2021/09/10 09:47:40;;;;;;;8.35;7.35;;;;;;;;;;4992198;28;20185;-71
2021/09/10 09:50:07;;;;;;;8.65;7.78;;;;;;;;;;5017968;28;20198;-71
2021/09/10 09:52:32;;;;;;;11.10;8.18;;;;;;;;;;5019101;28;20744;-71
2021/09/10 09:54:57;;;;;;;9.23;7.05;;;;;;;;;;5012464;28;20186;-71
2021/09/10 09:57:23;;;;;;;8.40;7.57;;;;;;;;;;5014675;28;20175;-71
2021/09/10 09:59:49;;;;;;;10.18;8.02;;;;;;;;;;5002726;28;20486;-71
2021/09/10 10:02:14;;;;;;;8.50;7.60;;;;;;;;;;5001704;28;20225;-71
2021/09/10 10:04:39;;;;;;;8.80;7.90;;;;;;;;;;5020826;28;20228;-71
2021/09/10 10:07:04;;;;;;;9.43;7.77;;;;;;;;;;5020199;28;20675;-71
2021/09/10 10:09:31;;;;;;;11.05;8.93;;;;;;;;;;5017021;28;20203;-71
2021/09/10 10:12:00;;;;;;;9.98;8.93;;;;;;;;;;5006046;28;20178;-71
2021/09/10 10:14:29;;;;;;;12.45;8.40;;;;;;;;;;4999861;28;20174;-71
2021/09/10 10:16:55;;;;;;;8.52;7.43;;;;;;;;;;5015572;28;20197;-72
2021/09/10 10:19:20;;;;;;;9.40;8.43;;;;;;;;;;5015972;28;20674;-72
2021/09/10 10:21:53;;;;;;;8.93;8.13;;;;;;;;;;5020942;28;20178;-72
2021/09/10 10:24:37;;;;;;;10.50;7.82;;;;;;;;;;5000327;28;20481;-72
2021/09/10 10:27:21;;;;;;;7.45;6.75;;;;;;;;;;5018003;28;20910;-72
2021/09/10 10:29:46;;;;;;;11.20;7.93;;;;;;;;;;5015506;28;20387;-70
2021/09/10 10:32:12;;;;;;;7.17;6.47;;;;;;;;;;5016229;28;20258;-71
2021/09/10 10:34:57;;;;;;;10.20;7.43;;;;;;;;;;5015964;28;20734;-71
2021/09/10 10:37:43;;;;;;;10.60;7.28;;;;;;;;;;5010392;23;20678;-70
2021/09/10 10:40:27;;;;;;;6.82;6.00;;;;;;;;;;4998291;28;20171;-70
2021/09/10 10:42:52;;;;;;;7.95;7.15;;;;;;;;;;5001104;28;20247;-71
2021/09/10 10:45:41;;;;;;;8.73;6.97;;;;;;;;;;5003407;28;20714;-71
2021/09/10 10:48:25;;;;;;;7.88;6.50;;;;;;;;;;4972252;28;20274;-70
2021/09/10 10:50:50;;;;;;;6.82;6.22;;;;;;;;;;4981264;28;20645;-70
2021/09/10 10:53:15;;;;;;;7.33;6.37;;;;;;;;;;4980650;28;20179;-70
2021/09/10 10:55:40;;;;;;;8.80;7.87;;;;;;;;;;4983759;28;20460;-70
2021/09/10 10:58:39;;;;;;;7.53;6.82;;;;;;;;;;4975450;28;20175;-72
2021/09/10 11:01:04;;;;;;;9.07;7.13;;;;;;;;;;4945857;28;20183;-70
2021/09/10 11:03:30;;;;;;;10.52;8.13;;;;;;;;;;4975408;28;20218;-69
2021/09/10 11:05:55;;;;;;;8.07;7.30;;;;;;;;;;4979123;28;20208;-70
2021/09/10 11:08:33;;;;;;;8.32;7.60;;;;;;;;;;4979922;28;20254;-70
2021/09/10 11:10:58;;;;;;;8.57;7.78;;;;;;;;;;4980015;28;20179;-70
2021/09/10 11:13:23;;;;;;;8.63;7.43;;;;;;;;;;4979322;28;20183;-70
2021/09/10 11:15:48;;;;;;;10.32;7.80;;;;;;;;;;4980193;28;20206;-70
2021/09/10 11:18:14;;;;;;;8.43;7.53;;;;;;;;;;4977489;28;20218;-70
2021/09/10 11:20:42;;;;;;;10.07;7.60;;;;;;;;;;4981921;28;20176;-70
2021/09/10 11:23:08;;;;;;;10.27;8.75;;;;;;;;;;4979025;28;22317;-70
2021/09/10 11:25:34;;;;;;;8.48;7.45;;;;;;;;;;4977017;28;20215;-70
2021/09/10 11:28:06;;;;;;;8.93;8.13;;;;;;;;;;4977091;28;20172;-70
2021/09/10 11:30:32;;;;;;;9.60;8.57;;;;;;;;;;4974138;28;20188;-70
2021/09/10 11:32:58;;;;;;;9.37;8.47;;;;;;;;;;4981122;28;20199;-70
2021/09/10 11:35:24;;;;;;;10.00;8.93;;;;;;;;;;4977020;28;20503;-70
2021/09/10 11:38:08;;;;;;;12.13;9.23;;;;;;;;;;4981612;28;20262;-70
2021/09/10 11:40:36;;;;;;;10.88;9.77;;;;;;;;;;4981036;28;20175;-70
2021/09/10 11:43:10;;;;;;;9.60;8.77;;;;;;;;;;4976473;28;20820;-70
2021/09/10 11:45:36;;;;;;;12.13;8.50;;;;;;;;;;4979581;28;20179;-70
2021/09/10 11:48:03;;;;;;;9.77;8.98;;;;;;;;;;4980734;28;20175;-70
2021/09/10 11:50:42;;;;;;;10.57;9.63;;;;;;;;;;4983446;28;20192;-70
2021/09/10 11:53:15;;;;;;;11.50;9.38;;;;;;;;;;4979691;28;20184;-71
2021/09/10 11:55:49;;;;;;;10.07;9.07;;;;;;;;;;4979103;28;20198;-70
2021/09/10 11:58:14;;;;;;;11.55;8.32;;;;;;;;;;4982242;28;20179;-70
2021/09/10 12:00:40;;;;;;;7.82;7.10;;;;;;;;;;4982806;28;20198;-71
2021/09/10 12:03:07;;;;;;;8.82;6.53;;;;;;;;;;4985049;28;20216;-70
2021/09/10 12:05:32;;;;;;;9.52;6.65;;;;;;;;;;4983027;28;20662;-70
2021/09/10 12:07:57;;;;;;;7.60;6.85;;;;;;;;;;4978399;28;20208;-70
2021/09/10 12:10:26;;;;;;;9.17;6.83;;;;;;;;;;4979247;28;20184;-70
2021/09/10 12:13:06;;;;;;;8.48;7.78;;;;;;;;;;4977815;28;20425;-70
2021/09/10 12:15:31;;;;;;;9.85;8.85;;;;;;;;;;4979713;28;20207;-70
2021/09/10 12:18:05;;;;;;;9.90;8.57;;;;;;;;;;4978175;28;20185;-70
2021/09/10 12:20:30;;;;;;;10.07;8.70;;;;;;;;;;4981742;28;20245;-70
2021/09/10 12:22:57;;;;;;;9.97;8.97;;;;;;;;;;4982338;28;20199;-70
2021/09/10 12:25:24;;;;;;;9.23;8.13;;;;;;;;;;4978729;28;20449;-70
2021/09/10 12:27:50;;;;;;;11.27;8.95;;;;;;;;;;4981572;28;20179;-70
2021/09/10 12:30:16;;;;;;;9.00;8.18;;;;;;;;;;4980643;28;20270;-70
2021/09/10 12:32:41;;;;;;;7.78;6.97;;;;;;;;;;4981024;28;20255;-71
2021/09/10 12:35:06;;;;;;;8.07;7.00;;;;;;;;;;4979307;28;20840;-70
2021/09/10 12:37:32;;;;;;;7.18;6.47;;;;;;;;;;4981366;28;20593;-70
2021/09/10 12:39:57;;;;;;;10.10;7.03;;;;;;;;;;4978350;28;20192;-70
2021/09/10 12:42:23;;;;;;;7.93;6.25;;;;;;;;;;4977831;28;20295;-70
2021/09/10 12:44:48;;;;;;;9.63;6.65;;;;;;;;;;4963429;28;20206;-70
2021/09/10 12:47:13;;;;;;;6.47;5.83;;;;;;;;;;4978080;28;20235;-70
2021/09/10 12:49:38;;;;;;;8.20;6.53;;;;;;;;;;4981995;28;20865;-70
2021/09/10 12:52:04;;;;;;;7.38;5.93;;;;;;;;;;4962258;28;20433;-70
2021/09/10 12:54:29;;;;;;;10.02;6.38;;;;;;;;;;4981795;28;20717;-70
2021/09/10 12:56:54;;;;;;;7.90;6.32;;;;;;;;;;4978401;28;20212;-70
2021/09/10 12:59:19;;;;;;;8.00;6.95;;;;;;;;;;4977726;28;20318;-70
2021/09/10 13:01:44;;;;;;;9.32;7.60;;;;;;;;;;4978204;28;20554;-70
2021/09/10 13:04:10;;;;;;;12.13;9.67;;;;;;;;;;4981671;28;20286;-70
2021/09/10 13:06:35;;;;;;;14.23;9.80;;;;;;;;;;4983806;28;20457;-70
2021/09/10 13:09:00;;;;;;;11.40;10.20;;;;;;;;;;4982309;28;20438;-69
2021/09/10 13:11:25;;;;;;;12.20;10.30;;;;;;;;;;4985085;28;20791;-69
2021/09/10 13:13:50;;;;;;;12.60;9.13;;;;;;;;;;4981815;28;20425;-70
2021/09/10 13:16:15;;;;;;;9.73;8.73;;;;;;;;;;4986055;28;20473;-69
2021/09/10 13:18:41;;;;;;;9.60;8.63;;;;;;;;;;4983341;28;20917;-70
2021/09/10 13:21:06;;;;;;;10.63;8.17;;;;;;;;;;4981773;28;20436;-70
2021/09/10 13:23:31;;;;;;;9.53;8.73;;;;;;;;;;4964176;28;20555;-70
2021/09/10 13:25:57;;;;;;;9.20;8.27;;;;;;;;;;4982239;28;20441;-70
2021/09/10 13:28:22;;;;;;;11.35;10.35;;;;;;;;;;4980137;28;20665;-70
2021/09/10 13:30:47;;;;;;;11.70;10.70;;;;;;;;;;4979314;28;20192;-71
2021/09/10 13:33:12;;;;;;;11.45;10.32;;;;;;;;;;4980291;28;20192;-70
2021/09/10 13:35:38;;;;;;;11.97;10.57;;;;;;;;;;4968660;28;20207;-71
2021/09/10 13:38:03;;;;;;;11.73;10.73;;;;;;;;;;4964169;28;20440;-70
2021/09/10 13:40:28;;;;;;;12.00;10.90;;;;;;;;;;4982207;28;20452;-70
2021/09/10 13:42:53;;;;;;;13.10;11.80;;;;;;;;;;4980551;28;20471;-70
2021/09/10 13:45:18;;;;;;;13.57;12.13;;;;;;;;;;4962190;28;20426;-70
2021/09/10 13:47:43;;;;;;;13.63;11.75;;;;;;;;;;4981473;28;20528;-70
2021/09/10 13:50:09;;;;;;;13.53;12.23;;;;;;;;;;4963539;28;20683;-70
2021/09/10 13:52:34;;;;;;;12.73;11.52;;;;;;;;;;4979881;28;20244;-70
2021/09/10 13:54:59;;;;;;;13.10;11.83;;;;;;;;;;4981573;28;20183;-70
2021/09/10 13:57:25;;;;;;;14.20;12.27;;;;;;;;;;4978796;28;20960;-71
2021/09/10 13:59:50;;;;;;;16.45;13.57;;;;;;;;;;4981382;28;20429;-70
2021/09/10 14:02:16;;;;;;;14.23;12.83;;;;;;;;;;4980863;28;20191;-70
2021/09/10 14:04:41;;;;;;;14.38;12.98;;;;;;;;;;4980567;28;20417;-70
2021/09/10 14:07:06;;;;;;;14.40;12.95;;;;;;;;;;4976772;28;20195;-70
2021/09/10 14:09:32;;;;;;;14.40;13.03;;;;;;;;;;4980608;28;20179;-70
2021/09/10 14:11:57;;;;;;;13.57;12.02;;;;;;;;;;4980573;28;20976;-73
2021/09/10 14:14:23;;;;;;;11.85;10.65;;;;;;;;;;4981256;28;20187;-70
2021/09/10 14:16:51;;;;;;;12.80;11.55;;;;;;;;;;4984513;28;20204;-70
2021/09/10 14:19:16;;;;;;;13.35;12.05;;;;;;;;;;4981074;28;20700;-70
2021/09/10 14:21:41;;;;;;;13.63;12.10;;;;;;;;;;4984389;28;20239;-70